Time;durP1;ratioP1;P1;durP2;ratioP2;P2;SDS_P1;SDS_P2;PMS_P1;PMS_P2;Temp;Humidity;BMP_temperature;BMP_pressure;BME280_temperature;BME280_humidity;BME280_pressure;Samples;Min_cycle;Max_cycle;Signal;HPM_P1;HPM_P2
2023/11/16 00:01:17;;;;;;;2.72;0.80;;;;;;;5.99;100.00;98474.69;15277927;19;20033;-54
2023/11/16 00:06:49;;;;;;;4.32;0.90;;;;;;;6.01;100.00;98491.50;15269575;19;20025;-55
2023/11/16 00:12:16;;;;;;;4.30;1.00;;;;;;;6.05;100.00;98484.91;15277340;19;20022;-55
2023/11/16 00:17:42;;;;;;;3.22;0.90;;;;;;;6.06;100.00;98496.44;15277556;19;20452;-56
2023/11/16 00:23:07;;;;;;;4.75;0.98;;;;;;;6.04;100.00;98487.69;15274850;19;20013;-51
2023/11/16 00:28:35;;;;;;;3.83;1.10;;;;;;;6.05;100.00;98489.41;15275654;19;20351;-54
2023/11/16 00:34:01;;;;;;;3.15;1.05;;;;;;;6.10;100.00;98485.34;15271407;19;20584;-55
2023/11/16 00:39:27;;;;;;;4.45;1.00;;;;;;;6.19;100.00;98499.78;15012229;19;5000731;-54
2023/11/16 00:44:54;;;;;;;4.15;1.10;;;;;;;6.34;100.00;98475.34;15272193;19;20099;-53
2023/11/16 00:50:21;;;;;;;2.17;0.90;;;;;;;6.40;100.00;98464.09;15266647;19;20482;-53
2023/11/16 00:55:46;;;;;;;1.83;0.70;;;;;;;6.27;100.00;98442.94;15297992;19;20021;-56
2023/11/16 01:01:15;;;;;;;1.13;0.68;;;;;;;6.16;100.00;98447.38;15272280;19;20018;-56
2023/11/16 01:06:34;;;;;;;1.60;0.60;;;;;;;6.11;100.00;98446.09;15272466;19;20014;-55
2023/11/16 01:11:59;;;;;;;0.82;0.60;;;;;;;5.98;100.00;98438.22;15267289;19;20014;-54
2023/11/16 01:17:32;;;;;;;2.53;0.70;;;;;;;5.93;100.00;98448.47;15271383;19;20014;-55
2023/11/16 01:23:11;;;;;;;1.45;0.80;;;;;;;5.80;100.00;98452.19;15270761;19;20025;-51
2023/11/16 01:28:40;;;;;;;2.72;1.05;;;;;;;5.67;100.00;98446.19;15272198;19;20019;-55
2023/11/16 01:34:10;;;;;;;3.78;1.00;;;;;;;5.63;100.00;98440.25;15265893;19;20018;-52
2023/11/16 01:39:38;;;;;;;3.65;1.13;;;;;;;5.65;100.00;98448.16;15272925;19;20014;-51
2023/11/16 01:45:05;;;;;;;3.08;1.10;;;;;;;5.71;100.00;98450.28;15257701;19;20027;-55
2023/11/16 01:50:36;;;;;;;4.00;1.27;;;;;;;5.74;100.00;98463.41;15271588;19;20015;-54
2023/11/16 01:56:03;;;;;;;2.13;1.10;;;;;;;5.79;100.00;98465.69;15267424;19;20025;-55
2023/11/16 02:01:29;;;;;;;2.58;1.15;;;;;;;5.79;100.00;98465.69;15274853;19;20275;-53
2023/11/16 02:07:04;;;;;;;2.28;1.00;;;;;;;5.77;100.00;98455.13;15252680;19;20020;-48
2023/11/16 02:12:30;;;;;;;3.47;1.05;;;;;;;5.74;100.00;98452.69;15284527;19;20018;-50
2023/11/16 02:17:54;;;;;;;2.35;1.20;;;;;;;5.69;100.00;98449.59;15280039;19;20097;-49
2023/11/16 02:23:21;;;;;;;4.07;1.23;;;;;;;5.64;100.00;98457.13;15283593;19;20058;-48
2023/11/16 02:28:46;;;;;;;3.17;1.20;;;;;;;5.55;100.00;98454.25;15025558;19;5001296;-48
2023/11/16 02:34:11;;;;;;;4.50;1.30;;;;;;;5.48;100.00;98468.25;15280333;19;20479;-49
2023/11/16 02:39:38;;;;;;;3.55;1.20;;;;;;;5.45;100.00;98472.06;15284898;19;20017;-48
2023/11/16 02:45:03;;;;;;;4.68;1.30;;;;;;;5.48;100.00;98474.44;15279484;19;20025;-49
2023/11/16 02:50:29;;;;;;;2.65;1.23;;;;;;;5.54;100.00;98478.44;15278588;19;20367;-50
2023/11/16 02:55:56;;;;;;;2.67;0.93;;;;;;;5.61;100.00;98481.44;15275529;19;20022;-47
2023/11/16 03:01:21;;;;;;;3.15;1.20;;;;;;;5.65;100.00;98470.34;15282734;19;20026;-48
2023/11/16 03:06:52;;;;;;;3.90;1.15;;;;;;;5.71;100.00;98463.66;15278025;19;20014;-48
2023/11/16 03:12:21;;;;;;;3.38;1.30;;;;;;;5.71;100.00;98459.16;15278019;19;20025;-48
2023/11/16 03:17:47;;;;;;;3.63;1.13;;;;;;;5.73;100.00;98459.03;15283225;19;20479;-47
2023/11/16 03:23:13;;;;;;;4.75;1.20;;;;;;;5.72;100.00;98454.66;15273353;19;20021;-49
2023/11/16 03:28:42;;;;;;;2.88;1.00;;;;;;;5.73;100.00;98451.00;15280862;19;20105;-48
2023/11/16 03:34:07;;;;;;;4.32;1.20;;;;;;;5.71;100.00;98450.28;15278909;19;20014;-48
2023/11/16 03:39:32;;;;;;;3.80;1.10;;;;;;;5.67;100.00;98459.56;15280277;19;21549;-49
2023/11/16 03:44:59;;;;;;;2.67;1.13;;;;;;;5.66;100.00;98450.69;15276772;19;20024;-50
2023/11/16 03:50:25;;;;;;;5.35;1.20;;;;;;;5.71;100.00;98450.28;15279358;19;20016;-47
2023/11/16 03:55:51;;;;;;;3.65;1.10;;;;;;;5.76;100.00;98455.25;15271368;19;20022;-47
2023/11/16 04:01:18;;;;;;;4.18;1.00;;;;;;;5.80;100.00;98448.66;15276297;19;20331;-49
2023/11/16 04:06:49;;;;;;;2.65;1.00;;;;;;;5.80;100.00;98446.84;15272858;19;20018;-48
2023/11/16 04:12:14;;;;;;;1.57;0.83;;;;;;;5.82;100.00;98450.22;15276278;19;20362;-48
2023/11/16 04:17:43;;;;;;;4.70;1.30;;;;;;;5.81;100.00;98447.69;15272356;19;20279;-49
2023/11/16 04:23:07;;;;;;;2.78;1.02;;;;;;;5.86;100.00;98445.47;15272186;19;20042;-51
2023/11/16 04:28:33;;;;;;;3.92;1.00;;;;;;;5.85;100.00;98439.28;15279132;19;20014;-51
2023/11/16 04:34:03;;;;;;;4.25;1.00;;;;;;;5.82;100.00;98442.19;15270233;19;20018;-52
2023/11/16 04:39:29;;;;;;;4.32;1.13;;;;;;;5.82;100.00;98442.19;15276150;19;20379;-48
2023/11/16 04:44:55;;;;;;;3.10;1.00;;;;;;;5.80;100.00;98441.50;15272432;19;20024;-51
2023/11/16 04:50:27;;;;;;;3.85;1.00;;;;;;;5.77;100.00;98424.84;15276350;19;20025;-51
2023/11/16 04:55:53;;;;;;;3.38;1.00;;;;;;;5.73;100.00;98429.63;15264951;19;20018;-52
2023/11/16 05:01:18;;;;;;;2.72;1.00;;;;;;;5.67;100.00;98420.28;15274968;19;20378;-49
2023/11/16 05:06:45;;;;;;;4.65;0.90;;;;;;;5.65;100.00;98418.75;15271634;19;20482;-51
2023/11/16 05:12:10;;;;;;;3.80;0.98;;;;;;;5.64;100.00;98409.88;15273762;19;20022;-47
2023/11/16 05:17:36;;;;;;;3.55;0.93;;;;;;;5.59;100.00;98405.88;15271423;19;20542;-49
2023/11/16 05:23:03;;;;;;;6.13;1.00;;;;;;;5.52;100.00;98397.56;15272382;19;20013;-49
2023/11/16 05:28:28;;;;;;;3.72;1.20;;;;;;;5.46;100.00;98395.41;15269699;19;20376;-52
2023/11/16 05:33:53;;;;;;;5.07;1.10;;;;;;;5.35;100.00;98382.97;15270547;19;20024;-48
2023/11/16 05:39:20;;;;;;;3.95;1.10;;;;;;;5.21;100.00;98366.25;15285156;19;20686;-52
2023/11/16 05:44:45;;;;;;;3.42;1.20;;;;;;;5.14;100.00;98375.75;15280745;19;20015;-48
2023/11/16 05:50:11;;;;;;;4.88;1.20;;;;;;;5.03;100.00;98368.66;15288288;19;20025;-51
2023/11/16 05:55:38;;;;;;;4.07;1.10;;;;;;;4.97;100.00;98365.63;15283707;19;20598;-48
2023/11/16 06:01:02;;;;;;;4.28;1.05;;;;;;;4.91;100.00;98367.81;15282366;19;20092;-48
2023/11/16 06:06:27;;;;;;;3.03;1.00;;;;;;;4.88;100.00;98361.91;15281627;19;20025;-49
2023/11/16 06:11:55;;;;;;;3.30;1.25;;;;;;;4.85;100.00;98360.34;15284568;19;20007;-49
2023/11/16 06:17:19;;;;;;;5.82;1.20;;;;;;;4.82;100.00;98357.06;15282463;19;20036;-50
2023/11/16 06:22:46;;;;;;;5.13;1.35;;;;;;;4.81;100.00;98352.72;15285470;19;20006;-48
2023/11/16 06:28:13;;;;;;;3.35;1.67;;;;;;;4.81;100.00;98353.53;15286070;19;20123;-52
2023/11/16 06:33:38;;;;;;;4.10;1.20;;;;;;;4.80;100.00;98351.84;15276559;19;20037;-49
2023/11/16 06:39:02;;;;;;;6.43;1.38;;;;;;;4.83;100.00;98362.28;15284962;19;20417;-47
2023/11/16 06:44:29;;;;;;;6.40;1.20;;;;;;;4.80;100.00;98364.34;15282381;19;20345;-50
2023/11/16 06:49:54;;;;;;;4.30;1.20;;;;;;;4.75;100.00;98372.75;15284940;19;20011;-49
2023/11/16 06:55:19;;;;;;;5.10;1.10;;;;;;;4.71;100.00;98369.44;15280029;19;20025;-49
2023/11/16 07:00:50;;;;;;;4.35;1.30;;;;;;;4.67;100.00;98373.38;15283286;19;20010;-48
2023/11/16 07:06:15;;;;;;;3.60;1.15;;;;;;;4.69;100.00;98376.75;15271548;19;20018;-48
2023/11/16 07:11:39;;;;;;;3.25;1.30;;;;;;;4.79;100.00;98371.50;15282270;19;20025;-48
2023/11/16 07:17:10;;;;;;;5.05;1.17;;;;;;;4.90;100.00;98370.63;15278832;19;20052;-47
2023/11/16 07:22:36;;;;;;;3.53;1.07;;;;;;;5.01;100.00;98369.72;15280593;19;20021;-48
2023/11/16 07:28:01;;;;;;;4.55;1.63;;;;;;;5.12;100.00;98367.00;15283659;19;20026;-47
2023/11/16 07:33:28;;;;;;;6.05;1.10;;;;;;;5.22;100.00;98369.75;15280297;19;20020;-51
2023/11/16 07:38:53;;;;;;;5.20;1.30;;;;;;;5.35;100.00;98367.75;15270872;19;20015;-48
2023/11/16 07:44:17;;;;;;;3.60;1.27;;;;;;;5.45;100.00;98362.50;15277578;19;20025;-52
2023/11/16 07:49:45;;;;;;;3.30;1.00;;;;;;;5.53;100.00;98365.34;15280057;19;20021;-51
2023/11/16 07:55:11;;;;;;;3.92;1.10;;;;;;;5.60;100.00;98359.47;15278149;19;20446;-50
2023/11/16 08:00:47;;;;;;;2.72;1.00;;;;;;;5.64;100.00;98350.22;15280756;19;20018;-51
2023/11/16 09:47:45;;;;;;;4.03;1.08;;;;;;;7.69;100.00;98242.53;15298301;19;20027;-91
2023/11/16 09:53:14;;;;;;;4.22;1.10;;;;;;;7.82;100.00;98230.63;15300321;19;20022;-91
2023/11/16 09:58:41;;;;;;;2.08;0.85;;;;;;;7.87;100.00;98222.97;15294831;19;20014;-91
2023/11/16 10:04:13;;;;;;;3.47;0.80;;;;;;;7.94;100.00;98217.84;15299933;19;20035;-91
2023/11/16 10:09:51;;;;;;;2.67;0.70;;;;;;;8.06;100.00;98197.00;15297912;19;20018;-91
2023/11/16 10:15:20;;;;;;;1.20;0.50;;;;;;;8.09;100.00;98167.19;15297428;19;20025;-91
2023/11/16 10:20:51;;;;;;;2.15;0.70;;;;;;;8.12;100.00;98166.91;15296955;19;20014;-91
2023/11/16 10:26:27;;;;;;;4.25;0.80;;;;;;;8.13;100.00;98157.88;15310377;19;20010;-90
2023/11/16 10:31:53;;;;;;;1.90;0.52;;;;;;;8.10;100.00;98160.84;15311772;19;20077;-91
2023/11/16 10:37:23;;;;;;;0.82;0.40;;;;;;;8.00;100.00;98145.66;15311117;19;20018;-90
2023/11/16 10:42:49;;;;;;;1.90;0.50;;;;;;;7.96;100.00;98122.81;15311068;19;20090;-91
2023/11/16 10:48:18;;;;;;;2.50;0.70;;;;;;;7.97;100.00;98120.97;15306585;19;20011;-91
2023/11/16 10:53:55;;;;;;;2.50;0.70;;;;;;;7.90;100.00;98112.69;15310626;19;20014;-91
2023/11/16 10:59:27;;;;;;;1.90;0.47;;;;;;;7.88;100.00;98112.00;15308025;19;20006;-91
2023/11/16 11:04:54;;;;;;;3.53;0.60;;;;;;;7.85;100.00;98104.25;15314116;19;20082;-91
2023/11/16 11:10:37;;;;;;;0.93;0.50;;;;;;;7.81;100.00;98097.53;15314775;19;20025;-91
2023/11/16 11:16:08;;;;;;;1.55;0.60;;;;;;;7.63;100.00;98086.78;15314603;19;20015;-91
2023/11/16 11:21:36;;;;;;;3.22;0.93;;;;;;;7.47;100.00;98104.34;15318175;19;20268;-91
2023/11/16 11:27:08;;;;;;;1.95;0.80;;;;;;;7.35;100.00;98084.94;15324445;19;20039;-91
2023/11/16 11:32:39;;;;;;;1.95;0.70;;;;;;;7.27;100.00;98084.84;15339318;19;20027;-90
2023/11/16 11:38:27;;;;;;;2.63;0.80;;;;;;;7.14;100.00;98070.94;15360098;19;20006;-90
2023/11/16 11:43:58;;;;;;;2.90;0.68;;;;;;;7.07;100.00;98060.81;15378104;19;20006;-90
2023/11/16 11:49:29;;;;;;;1.85;0.73;;;;;;;7.14;100.00;98058.41;15375772;19;20037;-90
2023/11/16 11:54:47;;;;;;;3.15;0.80;;;;;;;7.22;100.00;98054.97;15372542;19;20018;-90
2023/11/16 12:00:27;;;;;;;3.55;1.00;;;;;;;7.32;100.00;98047.72;15375166;19;20038;-91
2023/11/16 12:06:03;;;;;;;1.77;0.70;;;;;;;7.36;100.00;98038.38;15362934;19;20025;-92
2023/11/16 12:11:32;;;;;;;1.88;0.63;;;;;;;7.37;100.00;98034.72;15312519;19;20301;-92
2023/11/16 12:17:00;;;;;;;2.67;0.70;;;;;;;7.36;100.00;98016.94;15312033;19;20014;-92
2023/11/16 12:22:36;;;;;;;4.03;0.70;;;;;;;7.37;100.00;98018.63;15315964;19;20022;-92
2023/11/16 12:28:09;;;;;;;1.80;0.75;;;;;;;7.42;100.00;98015.50;15307074;19;20010;-92
2023/11/16 12:33:37;;;;;;;2.35;0.80;;;;;;;7.47;100.00;97985.56;15313507;19;20019;-92
2023/11/16 12:39:08;;;;;;;2.30;0.85;;;;;;;7.55;100.00;97977.63;15312643;19;20035;-92
2023/11/16 12:44:38;;;;;;;2.63;0.98;;;;;;;7.59;100.00;97975.47;15375491;19;20031;-91
2023/11/16 12:50:15;;;;;;;2.60;0.80;;;;;;;7.63;100.00;97976.84;15311991;19;20011;-92
2023/11/16 12:55:44;;;;;;;3.67;1.00;;;;;;;7.62;100.00;97961.75;15305351;19;20102;-91
2023/11/16 13:01:15;;;;;;;1.38;0.73;;;;;;;7.60;100.00;97953.03;15305121;19;20104;-92
2023/11/16 13:06:46;;;;;;;2.63;0.85;;;;;;;7.57;100.00;97948.81;15301147;19;20009;-91
2023/11/16 13:12:10;;;;;;;2.72;0.95;;;;;;;7.55;100.00;97943.59;15299118;19;20006;-91
2023/11/16 13:17:40;;;;;;;1.98;0.93;;;;;;;7.55;100.00;97938.22;15298947;19;20003;-92
2023/11/16 13:23:12;;;;;;;4.00;0.80;;;;;;;7.57;100.00;97938.09;15302274;19;20019;-92
2023/11/16 13:28:49;;;;;;;2.92;1.10;;;;;;;7.55;100.00;97942.75;15293679;19;20048;-91
2023/11/16 13:34:24;;;;;;;2.30;0.85;;;;;;;7.56;100.00;97947.13;15290739;19;20018;-91
2023/11/16 13:39:53;;;;;;;4.90;1.00;;;;;;;7.57;100.00;97938.09;15291712;19;20006;-91
2023/11/16 13:45:26;;;;;;;4.70;1.00;;;;;;;7.56;100.00;97941.78;15294355;19;20032;-90
2023/11/16 13:50:53;;;;;;;3.63;1.00;;;;;;;7.57;100.00;97943.47;15294028;19;20039;-90
2023/11/16 13:56:22;;;;;;;3.25;1.00;;;;;;;7.57;100.00;97948.81;15295537;19;20342;-91
2023/11/16 14:01:50;;;;;;;4.53;1.10;;;;;;;7.54;100.00;97951.81;15308250;19;20082;-90
2023/11/16 14:07:25;;;;;;;1.92;0.80;;;;;;;7.52;100.00;97946.59;15302219;19;20043;-92
2023/11/16 14:12:51;;;;;;;1.95;0.65;;;;;;;7.50;100.00;97942.38;15309305;19;20039;-90
2023/11/16 14:18:21;;;;;;;2.50;0.80;;;;;;;7.50;100.00;97931.66;15304309;19;20760;-91
2023/11/16 14:23:52;;;;;;;2.38;0.80;;;;;;;7.47;100.00;97915.88;15310418;19;20025;-91
2023/11/16 14:29:31;;;;;;;5.50;1.00;;;;;;;7.42;100.00;97905.63;15306606;19;20026;-90
2023/11/16 14:35:05;;;;;;;2.70;0.82;;;;;;;7.39;100.00;97898.72;15307670;19;20010;-90
2023/11/16 14:40:49;;;;;;;3.72;0.90;;;;;;;7.33;100.00;97888.63;15299151;19;20090;-91
2023/11/16 14:46:19;;;;;;;1.90;0.90;;;;;;;7.30;100.00;97890.75;15315038;19;20019;-91
2023/11/16 14:51:52;;;;;;;2.28;0.80;;;;;;;7.27;100.00;97877.69;15305115;19;20018;-91
2023/11/16 14:57:18;;;;;;;3.03;0.90;;;;;;;7.22;100.00;97870.94;15304991;19;20011;-91
2023/11/16 15:02:44;;;;;;;3.25;0.80;;;;;;;7.19;100.00;97868.56;15306543;19;20026;-91
2023/11/16 15:08:13;;;;;;;2.88;0.90;;;;;;;7.16;100.00;97862.69;15300171;19;20015;-90
2023/11/16 15:13:37;;;;;;;3.08;0.90;;;;;;;7.15;100.00;97852.97;15323739;19;20474;-90
2023/11/16 15:19:30;;;;;;;2.67;0.90;;;;;;;7.11;100.00;97860.47;15305210;19;20015;-91
2023/11/16 15:24:58;;;;;;;2.10;0.77;;;;;;;7.09;100.00;97844.56;15304865;19;20086;-91
2023/11/16 15:30:24;;;;;;;1.50;0.65;;;;;;;7.08;100.00;97840.19;15300298;19;20486;-91
2023/11/16 15:35:57;;;;;;;2.08;0.80;;;;;;;7.08;100.00;97842.88;15305646;19;20050;-89
2023/11/16 15:41:27;;;;;;;2.30;0.77;;;;;;;7.07;100.00;97851.91;15302976;19;20035;-89
2023/11/16 15:46:54;;;;;;;2.42;0.70;;;;;;;7.07;100.00;97853.72;15317966;19;20007;-89
2023/11/16 15:52:24;;;;;;;2.80;0.95;;;;;;;7.06;100.00;97862.75;15359047;19;20014;-91
2023/11/16 15:57:43;;;;;;;3.15;0.70;;;;;;;7.05;100.00;97869.94;15298547;19;20014;-57
2023/11/16 16:03:08;;;;;;;3.22;1.55;;;;;;;7.03;100.00;97871.94;15279400;19;20021;-58
2023/11/16 16:08:34;;;;;;;4.35;0.90;;;;;;;7.02;100.00;97870.25;15276284;19;20010;-57
2023/11/16 16:14:02;;;;;;;1.63;0.70;;;;;;;6.98;100.00;97868.91;15268681;19;20070;-57
2023/11/16 16:19:31;;;;;;;3.63;0.90;;;;;;;6.93;100.00;97877.38;15274275;19;20014;-59
2023/11/16 16:24:56;;;;;;;2.55;1.33;;;;;;;6.90;100.00;97876.81;15270052;19;20314;-57
2023/11/16 16:30:24;;;;;;;2.88;1.20;;;;;;;6.89;100.00;97880.50;15276114;19;20703;-55
2023/11/16 16:35:49;;;;;;;3.15;1.35;;;;;;;6.87;100.00;97877.16;15273960;19;20031;-59
2023/11/16 16:41:16;;;;;;;2.55;1.13;;;;;;;6.86;100.00;97875.47;15271922;19;20014;-58
2023/11/16 16:46:44;;;;;;;5.55;1.23;;;;;;;6.82;100.00;97880.25;15265337;19;20018;-58
2023/11/16 16:52:10;;;;;;;4.22;1.30;;;;;;;6.77;100.00;97879.88;15274816;19;20021;-57
2023/11/16 16:57:35;;;;;;;2.60;1.10;;;;;;;6.69;100.00;97879.78;15271830;19;20085;-56
2023/11/16 17:03:02;;;;;;;2.72;1.13;;;;;;;6.65;100.00;97884.59;15273255;19;20482;-58
2023/11/16 17:08:28;;;;;;;3.40;1.63;;;;;;;6.65;100.00;97884.59;15274990;19;20029;-58
2023/11/16 17:13:54;;;;;;;3.13;1.67;;;;;;;6.63;100.00;97883.91;15269932;19;20523;-58
2023/11/16 17:19:22;;;;;;;2.72;1.58;;;;;;;6.63;100.00;97891.94;15263400;19;20092;-55
2023/11/16 17:24:51;;;;;;;2.78;1.30;;;;;;;6.62;100.00;97895.59;15265131;19;20034;-58
2023/11/16 17:30:19;;;;;;;4.37;1.20;;;;;;;6.59;100.00;97896.72;15170096;19;2004656;-58
2023/11/16 17:35:46;;;;;;;7.05;4.32;;;;;;;6.52;100.00;97900.16;15285917;19;20276;-57
2023/11/16 17:41:12;;;;;;;4.45;1.40;;;;;;;6.43;100.00;97917.94;15277948;19;20042;-58
2023/11/16 17:46:36;;;;;;;3.58;1.40;;;;;;;6.38;100.00;97926.41;15280155;19;20029;-58
2023/11/16 17:52:05;;;;;;;3.78;1.77;;;;;;;6.30;100.00;97919.13;15279376;19;20347;-58
2023/11/16 17:57:29;;;;;;;3.90;1.80;;;;;;;6.18;100.00;97925.63;15282933;19;20936;-55
2023/11/16 18:02:54;;;;;;;6.18;2.00;;;;;;;6.09;100.00;97926.50;15283998;19;20356;-58
2023/11/16 18:08:22;;;;;;;5.32;2.47;;;;;;;6.01;100.00;97929.91;15289083;19;20432;-59
2023/11/16 18:13:48;;;;;;;4.72;2.42;;;;;;;5.93;100.00;97935.13;15282932;19;20429;-59
2023/11/16 18:19:13;;;;;;;6.85;2.65;;;;;;;5.85;100.00;97928.63;15283515;19;20011;-57
2023/11/16 18:24:42;;;;;;;5.50;1.90;;;;;;;5.79;100.00;97926.56;15278241;19;20019;-59
2023/11/16 18:30:07;;;;;;;4.00;1.30;;;;;;;5.68;100.00;97918.69;15289835;19;20023;-59
2023/11/16 18:35:26;;;;;;;4.03;1.20;;;;;;;5.60;100.00;97915.88;15261224;19;20025;-58
2023/11/16 18:40:54;;;;;;;3.42;0.85;;;;;;;5.47;100.00;97911.66;15281866;19;20237;-58
2023/11/16 18:46:19;;;;;;;2.80;1.00;;;;;;;5.39;100.00;97908.84;15281476;19;20029;-59
2023/11/16 18:51:47;;;;;;;2.45;0.77;;;;;;;5.33;100.00;97901.41;15285602;19;20022;-59
2023/11/16 18:57:15;;;;;;;3.05;0.70;;;;;;;5.30;100.00;97915.03;15292275;19;20046;-58
2023/11/16 19:02:40;;;;;;;1.42;0.60;;;;;;;5.24;100.00;97911.09;15298131;19;20300;-58
2023/11/16 19:08:04;;;;;;;1.15;0.57;;;;;;;5.23;100.00;97909.41;15283927;19;20471;-59
2023/11/16 19:13:32;;;;;;;2.10;0.90;;;;;;;5.24;100.00;97911.09;15280235;19;20037;-59
2023/11/16 19:18:56;;;;;;;1.88;0.70;;;;;;;5.29;100.00;97908.88;15280826;19;20067;-60
2023/11/16 19:24:21;;;;;;;4.25;0.80;;;;;;;5.33;100.00;97912.94;15281801;19;20014;-57
2023/11/16 19:29:48;;;;;;;2.67;0.90;;;;;;;5.31;100.00;97912.22;15277972;19;20018;-57
2023/11/16 19:35:13;;;;;;;3.67;1.17;;;;;;;5.32;100.00;97913.09;15279455;19;20085;-59
2023/11/16 19:40:38;;;;;;;6.18;1.52;;;;;;;5.30;100.00;97915.03;15276380;19;20487;-60
2023/11/16 19:46:06;;;;;;;4.45;1.90;;;;;;;5.30;100.00;97918.53;15276722;19;20010;-59
2023/11/16 19:51:31;;;;;;;4.45;2.65;;;;;;;5.32;100.00;97913.09;15280412;19;20011;-59
2023/11/16 19:56:57;;;;;;;7.13;3.38;;;;;;;5.33;100.00;97914.78;15275584;19;20047;-58
2023/11/16 20:02:27;;;;;;;6.15;3.22;;;;;;;5.34;100.00;97917.28;15269418;19;20014;-58
2023/11/16 20:07:52;;;;;;;6.68;3.55;;;;;;;5.34;100.00;97932.50;15272790;19;20018;-60
2023/11/16 20:13:22;;;;;;;6.50;3.85;;;;;;;5.34;100.00;97933.31;15267965;19;20515;-58
2023/11/16 20:18:51;;;;;;;7.85;4.30;;;;;;;5.34;100.00;97925.31;15279022;19;20097;-60
2023/11/16 20:24:16;;;;;;;6.80;4.03;;;;;;;5.33;100.00;97926.28;15274184;19;20026;-59
2023/11/16 20:29:41;;;;;;;8.10;5.00;;;;;;;5.34;100.00;97932.50;15275693;19;20015;-59
2023/11/16 20:35:10;;;;;;;7.05;4.90;;;;;;;5.32;100.00;97919.25;15266599;19;20045;-59
2023/11/16 20:40:37;;;;;;;5.60;3.10;;;;;;;5.28;100.00;97925.88;15275814;19;20429;-59
2023/11/16 20:46:02;;;;;;;4.45;2.83;;;;;;;5.21;100.00;97922.94;15272142;19;20026;-57
2023/11/16 20:51:30;;;;;;;7.13;2.85;;;;;;;5.16;100.00;97918.97;15270695;19;20089;-58
2023/11/16 20:56:54;;;;;;;5.20;2.88;;;;;;;5.15;100.00;97918.13;15268662;19;20025;-56
2023/11/16 21:02:19;;;;;;;4.28;2.40;;;;;;;5.28;100.00;97917.88;15260016;19;20409;-54
2023/11/16 21:07:48;;;;;;;3.75;2.45;;;;;;;5.27;100.00;97909.97;15259348;19;20014;-55
2023/11/16 21:13:14;;;;;;;4.32;2.42;;;;;;;5.24;100.00;97908.44;15265934;19;20033;-56
2023/11/16 21:18:39;;;;;;;4.90;2.13;;;;;;;5.22;100.00;97913.94;15267662;19;20352;-56
2023/11/16 21:24:09;;;;;;;6.57;2.67;;;;;;;5.20;100.00;97912.38;15269988;19;20011;-57
2023/11/16 21:29:33;;;;;;;5.63;2.75;;;;;;;5.20;100.00;97913.22;15269207;19;20015;-56
2023/11/16 21:34:59;;;;;;;4.22;2.60;;;;;;;5.23;100.00;97923.59;15272878;19;20023;-54
2023/11/16 21:40:27;;;;;;;6.18;3.03;;;;;;;5.20;100.00;97921.22;15267607;19;20015;-57
2023/11/16 21:45:52;;;;;;;5.30;2.13;;;;;;;5.18;100.00;97917.00;15271939;19;20023;-54
2023/11/16 21:51:16;;;;;;;3.17;2.03;;;;;;;5.21;100.00;97922.94;15272825;19;20489;-52
2023/11/16 21:56:44;;;;;;;3.08;1.90;;;;;;;5.18;100.00;97909.84;15270269;19;20478;-55
2023/11/16 22:02:15;;;;;;;4.78;2.20;;;;;;;5.15;100.00;97910.13;15268744;19;20026;-55
2023/11/16 22:07:44;;;;;;;3.60;2.10;;;;;;;5.21;100.00;97914.06;15271037;19;20027;-57
2023/11/16 22:13:11;;;;;;;3.72;2.47;;;;;;;5.23;100.00;97920.09;15266418;19;20294;-52
2023/11/16 22:18:38;;;;;;;5.80;2.30;;;;;;;5.23;100.00;97915.59;15281524;19;20357;-54
2023/11/16 22:24:03;;;;;;;4.82;2.55;;;;;;;5.16;100.00;97917.16;15287071;19;20026;-56
2023/11/16 22:29:32;;;;;;;4.47;2.95;;;;;;;5.10;100.00;97915.03;15287043;19;20018;-54
2023/11/16 22:34:56;;;;;;;5.60;3.33;;;;;;;5.13;100.00;97919.25;15282336;19;20022;-54
2023/11/16 22:40:21;;;;;;;3.55;2.88;;;;;;;5.10;100.00;97915.03;15284502;19;20173;-53
2023/11/16 22:45:48;;;;;;;3.13;2.22;;;;;;;5.06;100.00;97916.28;15277970;19;20085;-55
2023/11/16 22:51:13;;;;;;;2.80;1.65;;;;;;;5.08;100.00;97917.00;15284261;19;20498;-56
2023/11/16 22:56:37;;;;;;;3.80;1.50;;;;;;;5.12;100.00;97914.91;15283299;19;20021;-57
2023/11/16 23:02:11;;;;;;;2.83;1.70;;;;;;;5.15;100.00;97912.78;15278561;19;20069;-56
2023/11/16 23:07:36;;;;;;;4.55;1.70;;;;;;;5.12;100.00;97918.41;15285183;19;20010;-55
2023/11/16 23:13:05;;;;;;;3.08;1.80;;;;;;;5.06;100.00;97908.28;15283047;19;20777;-55
2023/11/16 23:18:35;;;;;;;3.38;1.50;;;;;;;5.05;100.00;97911.94;15282469;19;20016;-54
2023/11/16 23:23:59;;;;;;;2.65;1.23;;;;;;;5.03;100.00;97913.91;15281204;19;20035;-55
2023/11/16 23:29:24;;;;;;;2.92;1.30;;;;;;;4.94;100.00;97908.41;15025146;19;5001743;-56
2023/11/16 23:34:52;;;;;;;3.00;1.15;;;;;;;4.91;100.00;97916.69;15280782;19;20010;-55
2023/11/16 23:40:17;;;;;;;4.05;0.88;;;;;;;4.81;100.00;97923.84;15281301;19;20361;-56
2023/11/16 23:45:41;;;;;;;1.52;0.85;;;;;;;4.74;100.00;97930.72;15276902;19;20018;-56
2023/11/16 23:51:09;;;;;;;3.97;1.10;;;;;;;4.62;100.00;97930.81;15281822;19;20022;-56
2023/11/16 23:56:38;;;;;;;2.45;1.10;;;;;;;4.62;100.00;97933.50;15277632;19;20019;-57
